Date,TemperatureHighF,TemperatureAvgF,TemperatureLowF,DewpointHighF,DewpointAvgF,DewpointLowF,HumidityHigh,HumidityAvg,HumidityLow,PressureMaxIn,PressureMinIn,WindSpeedMaxMPH,WindSpeedAvgMPH,GustSpeedMaxMPH,PrecipitationSumIn
2013-11-1,52.3,42.9,36.1,0.0,0.0,0.0,0,0,100,0.00,0.00,0,0,0,0.00
2013-11-2,51.1,40.4,33.8,0.0,0.0,0.0,0,0,100,0.00,0.00,0,0,0,0.00
2013-11-5,44.5,36.9,27.7,0.0,0.0,0.0,0,0,100,0.00,0.00,0,0,0,0.00
2013-11-6,40.6,33.2,29.0,0.0,0.0,0.0,0,0,100,0.00,0.00,0,0,0,0.00
2013-11-7,34.6,30.3,26.0,0.0,0.0,0.0,0,0,100,0.00,0.00,0,0,0,0.00
2013-11-8,45.8,35.5,23.0,0.0,0.0,0.0,0,0,100,0.00,0.00,0,0,0,0.00
2013-11-9,45.5,40.7,34.3,0.0,0.0,0.0,0,0,100,0.00,0.00,0,0,0,0.00
2013-11-10,42.7,37.7,32.0,0.0,0.0,0.0,0,0,100,0.00,0.00,0,0,0,0.00
2013-11-11,37.9,24.8,15.2,0.0,0.0,0.0,0,0,100,0.00,0.00,0,0,0,0.00
2013-11-12,29.8,18.9,10.3,0.0,0.0,0.0,0,0,100,0.00,0.00,0,0,0,0.00
2013-11-13,50.4,36.9,22.9,0.0,0.0,0.0,0,0,100,0.00,0.00,0,0,0,0.00
2013-11-14,52.0,39.6,33.3,0.0,0.0,0.0,0,0,100,0.00,0.00,0,0,0,0.00
2013-11-15,37.4,33.2,30.1,0.0,0.0,0.0,0,0,100,0.00,0.00,0,0,0,0.00
2013-11-16,51.8,46.8,43.2,0.0,0.0,0.0,0,0,100,0.00,0.00,0,0,0,0.00
2013-11-17,43.4,39.4,31.6,0.0,0.0,0.0,0,0,100,0.00,0.00,0,0,0,0.00
2013-11-18,35.9,28.9,20.6,0.0,0.0,0.0,0,0,100,0.00,0.00,0,0,0,0.00
2013-11-19,48.0,34.3,20.0,0.0,0.0,0.0,0,0,100,0.00,0.00,0,0,0,0.00
2013-11-20,43.7,40.6,36.8,0.0,0.0,0.0,0,0,100,0.00,0.00,0,0,0,0.00
2013-11-21,37.6,32.3,23.6,0.0,0.0,0.0,0,0,100,0.00,0.00,0,0,0,0.00
2013-11-22,27.0,21.1,12.7,0.0,0.0,0.0,0,0,100,0.00,0.00,0,0,0,0.00
2013-11-23,18.0,10.7,6.0,0.0,0.0,0.0,0,0,100,0.00,0.00,0,0,0,0.00
2013-11-24,31.4,18.5,4.6,0.0,0.0,0.0,0,0,100,0.00,0.00,0,0,0,0.00
2013-11-25,39.4,33.2,26.5,0.0,0.0,0.0,0,0,100,0.00,0.00,0,0,0,0.00
2013-11-26,30.2,20.7,13.4,0.0,0.0,0.0,0,0,100,0.00,0.00,0,0,0,0.00
2013-11-27,26.1,17.7,6.8,0.0,0.0,0.0,0,0,100,0.00,0.00,0,0,0,0.00
2013-11-28,29.1,20.8,10.5,0.0,0.0,0.0,0,0,100,0.00,0.00,0,0,0,0.00
2013-11-29,34.6,22.4,8.7,0.0,0.0,0.0,0,0,100,0.00,0.00,0,0,0,0.00